createdAt,value
2022-11-29T00:01:29.154Z,20.90
2022-11-29T00:07:35.280Z,20.90
2022-11-29T00:14:32.507Z,21.30
2022-11-29T00:17:22.858Z,20.60
2022-11-29T00:20:35.687Z,19.00
2022-11-29T00:26:58.550Z,21.30
2022-11-29T00:30:11.749Z,20.60
2022-11-29T00:33:14.866Z,20.70
2022-11-29T00:39:22.183Z,19.40
2022-11-29T00:42:41.487Z,20.00
2022-11-29T00:45:49.225Z,18.50
2022-11-29T00:48:48.502Z,20.50
2022-11-29T00:51:48.618Z,20.40
2022-11-29T01:01:29.850Z,21.30
2022-11-29T01:04:34.150Z,20.40
2022-11-29T01:10:53.881Z,20.50
2022-11-29T01:14:12.509Z,17.60
2022-11-29T01:17:45.308Z,19.20
2022-11-29T01:28:43.673Z,19.80
2022-11-29T01:34:40.388Z,19.90
2022-11-29T01:37:14.721Z,19.60
2022-11-29T01:40:53.905Z,21.10
2022-11-29T01:47:52.562Z,20.00
2022-11-29T01:51:28.322Z,20.60
2022-11-29T01:54:48.860Z,20.10
2022-11-29T02:02:08.124Z,18.20
2022-11-29T02:05:10.271Z,20.50
2022-11-29T02:08:23.833Z,18.30
2022-11-29T02:11:47.817Z,20.80
2022-11-29T02:21:50.626Z,21.00
2022-11-29T02:30:06.534Z,19.80
2022-11-29T02:33:11.484Z,19.40
2022-11-29T02:36:58.252Z,20.30
2022-11-29T02:45:18.001Z,19.30
2022-11-29T02:49:00.943Z,20.60
2022-11-29T02:52:41.963Z,19.90
2022-11-29T03:00:08.721Z,16.60
2022-11-29T03:07:35.397Z,18.70
2022-11-29T03:10:35.026Z,18.60
2022-11-29T03:14:06.167Z,21.00
2022-11-29T03:17:20.889Z,19.30
2022-11-29T03:24:27.230Z,20.40
2022-11-29T03:27:42.302Z,18.50
2022-11-29T03:30:40.815Z,20.90
2022-11-29T03:37:10.842Z,19.60
2022-11-29T03:46:46.655Z,20.10
2022-11-29T03:49:46.454Z,19.90
2022-11-29T03:52:45.947Z,21.50
2022-11-29T03:56:05.705Z,20.50
2022-11-29T04:03:07.976Z,19.40
2022-11-29T04:14:46.687Z,21.80
2022-11-29T04:21:46.476Z,21.10
2022-11-29T04:25:23.749Z,20.90
2022-11-29T04:28:36.848Z,19.00
2022-11-29T04:31:42.989Z,20.60
2022-11-29T04:34:50.636Z,21.10
2022-11-29T04:38:19.999Z,20.20
2022-11-29T04:41:34.454Z,21.70
2022-11-29T04:45:17.067Z,21.10
2022-11-29T04:55:50.406Z,20.30
2022-11-29T05:06:22.183Z,21.00
2022-11-29T05:14:18.216Z,21.50
2022-11-29T05:26:05.758Z,21.40
2022-11-29T05:32:41.643Z,19.60
2022-11-29T05:35:57.015Z,21.60
2022-11-29T05:39:19.845Z,21.10
2022-11-29T05:45:53.088Z,21.10
2022-11-29T05:57:48.629Z,20.90
2022-11-29T06:32:11.298Z,22.50
2022-11-29T06:35:33.572Z,21.00
2022-11-29T06:38:54.379Z,20.50
2022-11-29T06:45:53.831Z,21.70
2022-11-29T06:57:02.642Z,23.50
2022-11-29T06:59:40.885Z,21.00
2022-11-29T07:02:18.273Z,22.50
2022-11-29T07:05:13.161Z,20.40
2022-11-29T07:07:42.164Z,84.00
2022-11-29T07:10:21.023Z,102.50
2022-11-29T07:12:51.262Z,99.70
2022-11-29T07:15:23.740Z,89.40
2022-11-29T07:18:15.790Z,51.70
2022-11-29T07:21:11.983Z,32.00
2022-11-29T07:23:54.593Z,23.00
2022-11-29T07:26:38.301Z,21.90
2022-11-29T07:29:53.775Z,22.70
2022-11-29T07:32:51.471Z,24.80
2022-11-29T07:35:42.081Z,25.30
2022-11-29T07:38:26.351Z,24.10
2022-11-29T07:41:31.662Z,22.60
2022-11-29T07:44:24.995Z,21.70
2022-11-29T07:47:22.148Z,22.20
2022-11-29T07:50:08.023Z,21.60
2022-11-29T07:52:43.513Z,22.30
2022-11-29T07:55:32.205Z,20.90
2022-11-29T07:58:26.608Z,24.40
2022-11-29T08:01:30.486Z,24.70
2022-11-29T08:04:37.702Z,20.20
2022-11-29T08:07:26.774Z,21.40
2022-11-29T08:10:07.610Z,21.30
2022-11-29T08:12:47.953Z,22.10
2022-11-29T08:15:32.341Z,22.10
2022-11-29T08:18:19.702Z,23.10
2022-11-29T08:21:01.105Z,22.20
2022-11-29T08:23:53.389Z,22.50
2022-11-29T08:26:42.847Z,21.60
2022-11-29T08:29:41.142Z,20.20
2022-11-29T08:32:39.817Z,20.60
2022-11-29T08:35:21.778Z,21.30
2022-11-29T08:38:06.793Z,21.90
2022-11-29T08:40:43.148Z,22.30
2022-11-29T08:43:15.972Z,21.20
2022-11-29T08:45:55.042Z,25.30
2022-11-29T08:48:29.909Z,24.40
2022-11-29T08:51:13.864Z,23.20
2022-11-29T08:53:49.107Z,21.20
2022-11-29T08:59:31.104Z,20.80
2022-11-29T09:02:17.070Z,21.20
2022-11-29T09:04:55.827Z,21.40
2022-11-29T09:13:56.915Z,20.40
2022-11-29T09:16:42.723Z,22.00
2022-11-29T09:19:19.193Z,21.20
2022-11-29T09:21:47.892Z,19.70
2022-11-29T09:24:21.595Z,21.90
2022-11-29T09:27:15.931Z,23.30
2022-11-29T09:30:23.377Z,21.20
2022-11-29T09:36:13.425Z,20.10
2022-11-29T09:42:22.411Z,21.70
2022-11-29T09:45:29.071Z,20.80
2022-11-29T09:48:34.347Z,21.10
2022-11-29T09:51:18.609Z,20.80
2022-11-29T09:54:15.817Z,21.30
2022-11-29T09:56:57.523Z,20.50
2022-11-29T10:00:12.648Z,21.10
2022-11-29T10:03:16.404Z,19.70
2022-11-29T10:06:18.062Z,20.80
2022-11-29T10:09:23.553Z,21.70
2022-11-29T10:12:17.597Z,20.10
2022-11-29T10:15:01.478Z,20.40
2022-11-29T10:20:53.331Z,18.60
2022-11-29T10:23:58.506Z,18.70
2022-11-29T10:26:29.301Z,20.00
2022-11-29T10:29:26.498Z,18.80
2022-11-29T10:32:10.439Z,19.90
2022-11-29T10:35:02.439Z,20.20
2022-11-29T10:38:14.656Z,19.70
2022-11-29T10:41:28.182Z,20.60
2022-11-29T10:48:06.503Z,19.20
2022-11-29T10:50:46.508Z,17.90
2022-11-29T10:53:48.305Z,19.00
2022-11-29T10:56:35.788Z,18.50
2022-11-29T11:02:29.471Z,17.60
2022-11-29T11:05:32.410Z,18.60
2022-11-29T11:08:42.199Z,18.90
2022-11-29T11:12:14.662Z,17.50
2022-11-29T11:15:37.124Z,19.60
2022-11-29T11:19:03.640Z,19.50
2022-11-29T11:21:47.908Z,19.10
2022-11-29T11:24:46.061Z,19.30
2022-11-29T11:27:39.707Z,18.50
2022-11-29T11:30:22.898Z,18.40
2022-11-29T11:33:38.056Z,18.20
2022-11-29T11:36:25.740Z,18.10
2022-11-29T11:39:20.033Z,17.20
2022-11-29T11:42:11.102Z,17.50
2022-11-29T11:45:03.318Z,17.80
2022-11-29T11:48:16.911Z,17.70
2022-11-29T11:51:33.862Z,17.70
2022-11-29T11:54:21.008Z,21.20
2022-11-29T11:56:57.377Z,19.00
2022-11-29T11:59:43.367Z,19.20
2022-11-29T12:02:41.224Z,17.40
2022-11-29T12:05:25.589Z,17.70
2022-11-29T12:08:12.578Z,18.10
2022-11-29T12:10:51.067Z,18.50
2022-11-29T12:13:32.638Z,16.60
2022-11-29T12:16:30.385Z,19.30
2022-11-29T12:19:13.682Z,18.40
2022-11-29T12:21:54.501Z,17.60
2022-11-29T12:27:46.179Z,17.40
2022-11-29T12:30:28.865Z,17.50
2022-11-29T12:33:22.866Z,17.30
2022-11-29T12:36:19.641Z,17.70
2022-11-29T12:39:18.173Z,17.20
2022-11-29T12:42:34.230Z,16.20
2022-11-29T12:45:24.109Z,16.80
2022-11-29T12:48:42.653Z,16.60
2022-11-29T12:51:58.100Z,15.20
2022-11-29T12:54:32.944Z,16.90
2022-11-29T12:57:23.597Z,16.20
2022-11-29T13:00:25.266Z,17.10
2022-11-29T13:03:04.317Z,19.00
2022-11-29T13:06:08.492Z,17.20
2022-11-29T13:09:04.201Z,16.50
2022-11-29T13:12:07.574Z,15.90
2022-11-29T13:15:02.323Z,16.50
2022-11-29T13:17:50.155Z,15.50
2022-11-29T13:20:59.842Z,16.50
2022-11-29T13:24:31.864Z,16.10
2022-11-29T13:27:17.678Z,16.50
2022-11-29T13:29:57.924Z,16.80
2022-11-29T13:33:14.839Z,17.20
2022-11-29T13:36:14.324Z,16.40
2022-11-29T13:39:27.856Z,16.70
2022-11-29T13:42:17.942Z,18.30
2022-11-29T13:45:31.762Z,17.20
2022-11-29T13:48:28.291Z,16.50
2022-11-29T13:51:41.972Z,17.60
2022-11-29T13:58:19.253Z,18.10
2022-11-29T14:01:09.848Z,18.10
2022-11-29T14:04:16.643Z,19.70
2022-11-29T14:09:55.749Z,18.60
2022-11-29T14:12:44.211Z,18.80
2022-11-29T14:15:35.691Z,19.30
2022-11-29T14:18:38.221Z,16.70
2022-11-29T14:21:18.084Z,19.60
2022-11-29T14:27:31.370Z,19.10
2022-11-29T14:30:05.464Z,20.10
2022-11-29T14:33:15.367Z,20.10
2022-11-29T14:36:08.871Z,20.60
2022-11-29T14:39:22.084Z,20.50
2022-11-29T14:43:02.852Z,21.40
2022-11-29T14:45:43.015Z,17.90
2022-11-29T14:48:42.214Z,22.10
2022-11-29T14:51:36.038Z,21.50
2022-11-29T14:54:20.618Z,22.00
2022-11-29T14:57:03.796Z,24.20
2022-11-29T14:59:50.346Z,21.30
2022-11-29T15:02:46.906Z,22.70
2022-11-29T15:05:54.142Z,20.70
2022-11-29T15:08:30.260Z,20.60
2022-11-29T15:11:06.249Z,23.40
2022-11-29T15:13:59.201Z,22.40
2022-11-29T15:17:18.569Z,22.70
2022-11-29T15:20:14.508Z,23.50
2022-11-29T15:23:11.724Z,23.70
2022-11-29T15:26:22.180Z,25.20
2022-11-29T15:29:23.164Z,25.90
2022-11-29T15:35:50.420Z,24.40
2022-11-29T15:39:03.380Z,25.20
2022-11-29T15:41:58.008Z,25.70
2022-11-29T15:44:28.923Z,25.10
2022-11-29T15:47:16.208Z,25.40
2022-11-29T15:49:47.804Z,24.20
2022-11-29T15:52:32.113Z,24.70
2022-11-29T15:55:12.038Z,25.40
2022-11-29T16:00:24.257Z,24.90
2022-11-29T16:03:07.808Z,26.90
2022-11-29T16:05:42.457Z,26.20
2022-11-29T16:08:20.090Z,28.40
2022-11-29T16:10:57.324Z,90.90
2022-11-29T16:13:33.143Z,72.80
2022-11-29T16:16:08.189Z,173.70
2022-11-29T16:18:44.620Z,154.10
2022-11-29T16:21:34.229Z,47.80
2022-11-29T16:27:07.852Z,29.20
2022-11-29T16:32:31.331Z,28.40
2022-11-29T16:35:43.317Z,28.80
2022-11-29T16:38:27.269Z,28.60
2022-11-29T16:41:09.706Z,29.00
2022-11-29T16:46:27.332Z,42.60
2022-11-29T16:49:03.938Z,31.90
2022-11-29T16:51:52.113Z,29.30
2022-11-29T16:54:28.502Z,28.90
2022-11-29T16:56:58.531Z,29.60
2022-11-29T16:59:28.841Z,30.20
2022-11-29T17:01:58.307Z,29.80
2022-11-29T17:04:29.409Z,29.50
2022-11-29T17:07:00.372Z,30.60
2022-11-29T17:09:34.576Z,27.10
2022-11-29T17:12:13.928Z,31.30
2022-11-29T17:14:47.251Z,31.00
2022-11-29T17:17:28.184Z,32.00
2022-11-29T17:19:57.665Z,31.10
2022-11-29T17:22:38.425Z,30.70
2022-11-29T17:25:07.914Z,57.10
2022-11-29T17:27:37.146Z,41.40
2022-11-29T17:30:08.152Z,43.30
2022-11-29T17:32:37.530Z,31.60
2022-11-29T17:35:06.396Z,30.90
2022-11-29T17:37:35.778Z,29.20
2022-11-29T17:40:05.011Z,29.40
2022-11-29T17:42:37.419Z,30.50
2022-11-29T17:45:06.527Z,29.10
2022-11-29T17:47:40.303Z,31.20
2022-11-29T17:50:09.634Z,30.20
2022-11-29T17:52:40.235Z,30.30
2022-11-29T17:55:09.316Z,29.00
2022-11-29T17:57:38.634Z,29.20
2022-11-29T18:00:09.248Z,29.90
2022-11-29T18:02:38.374Z,29.90
2022-11-29T18:05:09.157Z,32.00
2022-11-29T18:07:58.823Z,29.40
2022-11-29T18:10:29.045Z,28.90
2022-11-29T18:12:58.356Z,32.00
2022-11-29T18:15:26.992Z,31.90
2022-11-29T18:17:55.646Z,30.80
2022-11-29T18:20:24.785Z,31.00
2022-11-29T18:22:53.664Z,30.40
2022-11-29T18:25:39.634Z,37.20
2022-11-29T18:28:11.855Z,50.00
2022-11-29T18:30:41.878Z,33.20
2022-11-29T18:33:11.510Z,30.20
2022-11-29T18:35:42.877Z,33.40
2022-11-29T18:38:16.544Z,31.50
2022-11-29T18:40:46.365Z,32.10
2022-11-29T18:43:17.479Z,31.20
2022-11-29T18:48:18.125Z,28.50
2022-11-29T18:50:47.317Z,30.90
2022-11-29T18:53:16.866Z,30.10
2022-11-29T18:55:50.422Z,29.60
2022-11-29T18:58:21.484Z,31.60
2022-11-29T19:01:24.631Z,30.20
2022-11-29T19:03:59.822Z,29.10
2022-11-29T19:06:38.950Z,32.30
2022-11-29T19:09:15.076Z,106.20
2022-11-29T19:11:54.451Z,74.00
2022-11-29T19:17:40.158Z,31.30
2022-11-29T19:20:17.756Z,30.70
2022-11-29T19:23:00.660Z,29.80
2022-11-29T19:28:57.906Z,117.00
2022-11-29T19:31:59.931Z,60.80
2022-11-29T19:38:13.776Z,30.80
2022-11-29T19:41:18.662Z,27.10
2022-11-29T19:44:07.455Z,29.30
2022-11-29T19:49:47.089Z,28.60
2022-11-29T19:55:23.926Z,29.60
2022-11-29T19:57:59.699Z,28.30
2022-11-29T20:00:35.226Z,29.10
2022-11-29T20:03:09.967Z,30.20
2022-11-29T20:06:31.321Z,30.00
2022-11-29T20:09:20.797Z,29.60
2022-11-29T20:11:50.685Z,28.60
2022-11-29T20:14:49.764Z,30.40
2022-11-29T20:17:27.642Z,68.60
2022-11-29T20:20:05.760Z,182.30
2022-11-29T20:22:53.474Z,47.80
2022-11-29T20:25:28.617Z,32.60
2022-11-29T20:28:07.132Z,29.20
2022-11-29T20:31:14.734Z,30.10
2022-11-29T20:33:55.231Z,28.70
2022-11-29T20:40:09.411Z,29.40
2022-11-29T20:43:19.514Z,136.70
2022-11-29T20:45:59.241Z,48.50
2022-11-29T20:48:35.781Z,30.90
2022-11-29T20:51:14.378Z,28.70
2022-11-29T20:53:47.082Z,28.90
2022-11-29T20:56:22.702Z,28.50
2022-11-29T20:59:05.505Z,30.50
2022-11-29T21:01:47.704Z,28.00
2022-11-29T21:04:56.526Z,28.90
2022-11-29T21:07:40.036Z,33.70
2022-11-29T21:10:13.398Z,41.70
2022-11-29T21:12:51.265Z,32.20
2022-11-29T21:15:28.201Z,41.10
2022-11-29T21:17:58.335Z,32.40
2022-11-29T21:20:31.564Z,30.00
2022-11-29T21:23:15.762Z,31.80
2022-11-29T21:26:05.319Z,30.00
2022-11-29T21:28:51.028Z,30.70
2022-11-29T21:31:26.715Z,30.20
2022-11-29T21:33:57.515Z,28.50
2022-11-29T21:36:28.350Z,29.90
2022-11-29T21:39:03.624Z,45.20
2022-11-29T21:41:36.311Z,46.30
2022-11-29T21:44:08.810Z,59.60
2022-11-29T21:46:39.670Z,32.90
2022-11-29T21:49:09.767Z,30.40
2022-11-29T21:51:40.186Z,30.20
2022-11-29T21:54:16.967Z,30.20
2022-11-29T21:56:51.976Z,31.30
2022-11-29T21:59:29.139Z,31.20
2022-11-29T22:02:00.756Z,31.20
2022-11-29T22:04:33.701Z,31.60
2022-11-29T22:07:07.868Z,30.40
2022-11-29T22:09:42.351Z,30.60
2022-11-29T22:12:34.989Z,31.00
2022-11-29T22:15:27.903Z,29.70
2022-11-29T22:18:01.982Z,30.00
2022-11-29T22:20:35.431Z,30.00
2022-11-29T22:23:11.569Z,29.30
2022-11-29T22:25:45.140Z,32.00
2022-11-29T22:28:20.132Z,31.70
2022-11-29T22:30:52.793Z,31.50
2022-11-29T22:33:34.686Z,26.00
2022-11-29T22:36:14.029Z,30.90
2022-11-29T22:38:50.838Z,28.20
2022-11-29T22:41:20.282Z,28.50
2022-11-29T22:43:50.098Z,30.20
2022-11-29T22:46:26.667Z,31.10
2022-11-29T22:49:02.746Z,29.20
2022-11-29T22:51:41.320Z,28.20
2022-11-29T22:54:18.762Z,29.50
2022-11-29T22:56:51.051Z,28.30
2022-11-29T22:59:20.220Z,32.30
2022-11-29T23:01:58.437Z,30.50
2022-11-29T23:04:31.720Z,30.00
2022-11-29T23:07:07.059Z,29.80
2022-11-29T23:09:47.937Z,27.90
2022-11-29T23:12:24.418Z,29.40
2022-11-29T23:15:09.627Z,29.70
2022-11-29T23:18:18.519Z,24.90
2022-11-29T23:20:51.239Z,30.80
2022-11-29T23:23:21.257Z,29.30
2022-11-29T23:25:57.495Z,29.20
2022-11-29T23:28:38.009Z,30.00
2022-11-29T23:31:14.618Z,29.40
2022-11-29T23:33:53.728Z,29.30
2022-11-29T23:36:31.718Z,27.40
2022-11-29T23:39:06.925Z,30.10
2022-11-29T23:41:41.009Z,29.40
2022-11-29T23:44:16.246Z,30.10
2022-11-29T23:46:57.642Z,29.90
2022-11-29T23:49:38.683Z,31.10
2022-11-29T23:52:25.929Z,29.90
2022-11-29T23:58:23.922Z,28.20
